createdAt,value
2018-06-22T00:01:59.303Z,11.80
2018-06-22T00:04:28.717Z,11.70
2018-06-22T00:06:58.058Z,11.50
2018-06-22T00:09:27.421Z,11.50
2018-06-22T00:11:56.814Z,11.40
2018-06-22T00:14:26.221Z,11.10
2018-06-22T00:16:55.646Z,11.10
2018-06-22T00:19:25.022Z,11.00
2018-06-22T00:21:54.378Z,11.00
2018-06-22T00:24:23.726Z,11.00
2018-06-22T00:29:22.186Z,11.30
2018-06-22T00:31:55.918Z,11.30
2018-06-22T00:34:25.305Z,11.40
2018-06-22T00:36:54.631Z,11.30
2018-06-22T00:44:26.637Z,10.60
2018-06-22T00:46:56.002Z,10.70
2018-06-22T00:49:25.433Z,10.50
2018-06-22T00:51:54.821Z,10.50
2018-06-22T00:54:24.242Z,10.50
2018-06-22T00:56:53.633Z,10.70
2018-06-22T00:59:22.977Z,10.70
2018-06-22T01:01:53.357Z,10.60
2018-06-22T01:04:22.691Z,10.50
2018-06-22T01:09:21.265Z,10.20
2018-06-22T01:12:13.326Z,10.10
2018-06-22T01:14:42.710Z,10.00
2018-06-22T01:17:12.102Z,10.00
2018-06-22T01:20:19.489Z,10.00
2018-06-22T01:22:48.806Z,10.00
2018-06-22T01:25:18.223Z,10.10
2018-06-22T01:27:47.609Z,9.90
2018-06-22T01:30:19.001Z,9.70
2018-06-22T01:32:48.370Z,9.70
2018-06-22T01:35:17.638Z,9.70
2018-06-22T01:37:46.945Z,9.80
2018-06-22T01:40:21.477Z,9.70
2018-06-22T01:42:50.787Z,9.30
2018-06-22T01:45:20.195Z,9.40
2018-06-22T01:47:49.590Z,9.50
2018-06-22T01:50:29.994Z,9.40
2018-06-22T01:52:59.325Z,9.40
2018-06-22T01:55:28.746Z,9.30
2018-06-22T01:57:58.209Z,9.50
2018-06-22T02:00:31.946Z,9.30
2018-06-22T02:05:30.458Z,9.50
2018-06-22T02:07:59.953Z,9.40
2018-06-22T02:13:38.237Z,9.20
2018-06-22T02:16:07.645Z,9.20
2018-06-22T02:18:37.265Z,9.00
2018-06-22T02:21:16.157Z,8.80
2018-06-22T02:23:45.485Z,8.80
2018-06-22T02:26:14.920Z,8.50
2018-06-22T02:28:44.284Z,8.40
2018-06-22T02:31:18.973Z,8.30
2018-06-22T02:33:48.326Z,8.20
2018-06-22T02:36:17.731Z,8.20
2018-06-22T02:38:47.137Z,8.20
2018-06-22T02:41:24.754Z,8.20
2018-06-22T02:43:54.153Z,8.10
2018-06-22T02:46:23.497Z,8.10
2018-06-22T02:48:52.965Z,8.30
2018-06-22T02:51:36.393Z,8.30
2018-06-22T02:54:05.812Z,8.10
2018-06-22T02:56:35.190Z,8.20
2018-06-22T02:59:04.681Z,8.10
2018-06-22T03:01:35.094Z,8.20
2018-06-22T03:04:04.454Z,8.10
2018-06-22T03:06:33.845Z,8.20
2018-06-22T03:09:03.185Z,8.30
2018-06-22T03:11:33.586Z,8.30
2018-06-22T03:14:02.916Z,8.30
2018-06-22T03:16:32.374Z,8.40
2018-06-22T03:19:01.531Z,8.40
2018-06-22T03:21:32.661Z,8.10
2018-06-22T03:24:01.761Z,7.80
2018-06-22T03:26:30.854Z,7.80
2018-06-22T03:29:00.030Z,7.60
2018-06-22T03:33:58.956Z,7.60
2018-06-22T03:36:28.086Z,7.80
2018-06-22T03:41:28.609Z,8.10
2018-06-22T03:43:58.009Z,8.00
2018-06-22T03:46:27.398Z,8.00
2018-06-22T03:48:57.018Z,8.50
2018-06-22T03:55:15.985Z,8.10
2018-06-22T03:57:45.325Z,8.00
2018-06-22T04:00:27.630Z,8.10
2018-06-22T04:02:57.050Z,8.00
2018-06-22T04:05:26.449Z,8.00
2018-06-22T04:07:55.803Z,8.00
2018-06-22T04:10:26.266Z,8.10
2018-06-22T04:12:55.632Z,7.90
2018-06-22T04:17:55.019Z,8.10
2018-06-22T04:20:25.635Z,8.20
2018-06-22T04:22:55.144Z,8.30
2018-06-22T04:25:25.375Z,8.40
2018-06-22T04:27:54.727Z,8.40
2018-06-22T04:30:34.853Z,8.40
2018-06-22T04:33:04.318Z,8.50
2018-06-22T04:35:33.836Z,8.30
2018-06-22T04:38:03.201Z,9.00
2018-06-22T04:40:33.626Z,8.90
2018-06-22T04:43:02.957Z,8.90
2018-06-22T04:48:01.346Z,9.10
2018-06-22T04:50:43.501Z,9.30
2018-06-22T04:53:14.313Z,9.40
2018-06-22T04:55:43.710Z,9.60
2018-06-22T04:58:13.205Z,9.60
2018-06-22T05:01:02.022Z,9.70
2018-06-22T05:03:31.444Z,9.80
2018-06-22T05:06:00.805Z,9.90
2018-06-22T05:08:30.338Z,10.10
2018-06-22T05:11:33.901Z,10.20
2018-06-22T05:14:03.307Z,10.20
2018-06-22T05:16:32.698Z,10.40
2018-06-22T05:19:02.035Z,10.60
2018-06-22T05:21:32.454Z,10.60
2018-06-22T05:24:01.870Z,10.60
2018-06-22T05:26:31.297Z,10.70
2018-06-22T05:29:00.681Z,10.70
2018-06-22T05:31:31.166Z,10.80
2018-06-22T05:34:00.590Z,10.80
2018-06-22T05:36:29.981Z,11.00
2018-06-22T05:38:59.385Z,11.00
2018-06-22T05:41:37.482Z,11.10
2018-06-22T05:44:06.886Z,11.10
2018-06-22T05:46:36.834Z,11.30
2018-06-22T05:49:06.239Z,11.40
2018-06-22T05:51:36.717Z,11.60
2018-06-22T05:54:06.073Z,11.50
2018-06-22T05:56:35.551Z,11.50
2018-06-22T05:59:04.930Z,11.50
2018-06-22T06:02:02.321Z,11.70
2018-06-22T06:04:31.751Z,11.70
2018-06-22T06:07:01.094Z,11.70
2018-06-22T06:09:30.542Z,11.80
2018-06-22T06:11:59.925Z,11.90
2018-06-22T06:14:29.326Z,12.00
2018-06-22T06:16:58.722Z,12.10
2018-06-22T06:19:27.990Z,12.00
2018-06-22T06:21:57.350Z,12.00
2018-06-22T06:26:55.861Z,12.40
2018-06-22T06:29:25.249Z,12.60
2018-06-22T06:31:54.670Z,12.90
2018-06-22T06:34:24.096Z,12.90
2018-06-22T06:36:53.450Z,12.80
2018-06-22T06:39:22.845Z,12.30
2018-06-22T06:41:53.314Z,12.10
2018-06-22T06:44:22.632Z,12.10
2018-06-22T06:46:52.023Z,12.00
2018-06-22T06:49:21.677Z,12.20
2018-06-22T06:52:08.190Z,12.30
2018-06-22T06:54:37.562Z,12.50
2018-06-22T06:57:06.942Z,12.50
2018-06-22T06:59:36.298Z,12.50
2018-06-22T07:02:05.785Z,12.80
2018-06-22T07:04:35.162Z,12.80
2018-06-22T07:07:04.499Z,12.80
2018-06-22T07:09:33.802Z,12.80
2018-06-22T07:12:03.191Z,12.90
2018-06-22T07:14:32.570Z,12.80
2018-06-22T07:17:01.939Z,12.60
2018-06-22T07:19:31.403Z,12.40
2018-06-22T07:22:00.717Z,12.30
2018-06-22T07:24:30.105Z,12.10
2018-06-22T07:26:59.433Z,12.30
2018-06-22T07:29:28.901Z,12.50
2018-06-22T07:31:58.345Z,12.50
2018-06-22T07:34:27.725Z,12.50
2018-06-22T07:39:26.838Z,12.50
2018-06-22T07:41:56.211Z,12.30
2018-06-22T07:44:25.630Z,12.40
2018-06-22T07:46:55.006Z,12.30
2018-06-22T07:49:24.341Z,12.20
2018-06-22T07:51:53.726Z,12.10
2018-06-22T07:54:23.109Z,12.00
2018-06-22T07:56:52.506Z,11.90
2018-06-22T07:59:21.926Z,11.90
2018-06-22T08:01:55.790Z,11.70
2018-06-22T08:04:25.237Z,11.70
2018-06-22T08:06:54.673Z,11.80
2018-06-22T08:09:24.065Z,12.00
2018-06-22T08:11:53.481Z,12.10
2018-06-22T08:14:22.884Z,12.10
2018-06-22T08:19:21.318Z,12.10
2018-06-22T08:21:54.034Z,12.00
2018-06-22T08:24:23.442Z,11.90
2018-06-22T08:26:52.855Z,12.00
2018-06-22T08:29:22.248Z,11.80
2018-06-22T08:31:53.597Z,11.90
2018-06-22T08:34:22.922Z,11.80
2018-06-22T08:36:52.350Z,11.80
2018-06-22T08:39:21.665Z,12.10
2018-06-22T08:42:10.199Z,12.10
2018-06-22T08:44:39.545Z,12.20
2018-06-22T08:47:08.975Z,12.00
2018-06-22T08:49:50.933Z,11.90
2018-06-22T08:52:20.374Z,11.90
2018-06-22T08:54:49.693Z,11.70
2018-06-22T08:57:19.030Z,11.40
2018-06-22T09:00:16.878Z,11.50
2018-06-22T09:02:46.329Z,11.60
2018-06-22T09:05:15.710Z,11.70
2018-06-22T09:07:45.046Z,11.60
2018-06-22T09:10:15.490Z,11.40
2018-06-22T09:12:44.992Z,11.60
2018-06-22T09:15:14.363Z,11.30
2018-06-22T09:17:43.794Z,11.30
2018-06-22T09:20:22.587Z,11.50
2018-06-22T09:22:51.928Z,11.50
2018-06-22T09:25:21.295Z,11.60
2018-06-22T09:27:50.574Z,11.70
2018-06-22T09:31:01.526Z,12.00
2018-06-22T09:33:30.844Z,12.10
2018-06-22T09:36:00.303Z,12.50
2018-06-22T09:38:30.773Z,12.60
2018-06-22T09:41:41.670Z,12.80
2018-06-22T09:44:46.502Z,13.80
2018-06-22T09:47:15.882Z,13.80
2018-06-22T09:50:01.935Z,13.90
2018-06-22T09:52:31.303Z,13.40
2018-06-22T09:55:00.619Z,13.90
2018-06-22T09:57:30.082Z,14.00
2018-06-22T10:00:00.526Z,13.90
2018-06-22T10:02:29.922Z,13.50
2018-06-22T10:04:59.358Z,13.30
2018-06-22T10:07:28.678Z,13.10
2018-06-22T10:10:09.073Z,12.80
2018-06-22T10:12:38.442Z,13.00
2018-06-22T10:15:08.201Z,13.70
2018-06-22T10:17:37.564Z,14.10
2018-06-22T10:20:33.277Z,14.20
2018-06-22T10:23:02.689Z,13.90
2018-06-22T10:25:32.055Z,14.30
2018-06-22T10:28:06.152Z,14.00
2018-06-22T10:30:38.805Z,14.00
2018-06-22T10:33:07.984Z,14.20
2018-06-22T10:35:37.121Z,14.10
2018-06-22T10:38:06.453Z,13.80
2018-06-22T10:40:50.189Z,13.90
2018-06-22T10:43:19.264Z,14.00
2018-06-22T10:45:48.355Z,13.90
2018-06-22T10:48:17.414Z,13.50
2018-06-22T10:50:47.565Z,13.30
2018-06-22T10:53:16.673Z,13.30
2018-06-22T10:55:45.929Z,13.60
2018-06-22T10:58:15.361Z,14.10
2018-06-22T11:00:59.926Z,14.40
2018-06-22T11:03:29.338Z,15.00
2018-06-22T11:05:58.754Z,15.70
2018-06-22T11:08:28.252Z,15.20
2018-06-22T11:11:11.530Z,15.20
2018-06-22T11:13:40.873Z,14.80
2018-06-22T11:16:10.226Z,14.60
2018-06-22T11:18:39.642Z,15.10
2018-06-22T11:21:11.146Z,14.90
2018-06-22T11:23:40.626Z,14.70
2018-06-22T11:26:10.036Z,15.30
2018-06-22T11:28:40.308Z,15.50
2018-06-22T11:31:11.926Z,15.70
2018-06-22T11:33:41.322Z,15.50
2018-06-22T11:36:10.690Z,15.80
2018-06-22T11:38:40.074Z,15.90
2018-06-22T11:41:09.521Z,15.70
2018-06-22T11:43:38.900Z,16.20
2018-06-22T11:46:08.270Z,16.40
2018-06-22T11:48:37.637Z,15.80
2018-06-22T11:51:19.842Z,16.10
2018-06-22T11:53:49.174Z,15.40
2018-06-22T11:56:18.590Z,15.00
2018-06-22T11:58:48.082Z,15.00
2018-06-22T12:01:21.249Z,15.70
2018-06-22T12:03:50.594Z,16.50
2018-06-22T12:06:20.136Z,16.20
2018-06-22T12:08:49.529Z,16.10
2018-06-22T12:13:52.263Z,17.20
2018-06-22T12:16:21.654Z,18.40
2018-06-22T12:21:34.494Z,20.50
2018-06-22T12:24:03.961Z,19.90
2018-06-22T12:26:33.320Z,18.90
2018-06-22T12:29:02.743Z,18.80
2018-06-22T12:31:32.609Z,18.60
2018-06-22T12:34:02.056Z,18.10
2018-06-22T12:36:31.471Z,17.70
2018-06-22T12:39:00.837Z,18.20
2018-06-22T12:41:31.358Z,18.90
2018-06-22T12:44:00.870Z,18.90
2018-06-22T12:46:30.217Z,19.00
2018-06-22T12:48:59.566Z,20.40
2018-06-22T12:51:30.178Z,20.50
2018-06-22T12:53:59.734Z,19.90
2018-06-22T12:56:29.077Z,19.70
2018-06-22T12:58:58.449Z,18.60
2018-06-22T13:01:36.914Z,19.70
2018-06-22T13:04:09.506Z,20.70
2018-06-22T13:06:39.243Z,21.90
2018-06-22T13:09:10.979Z,22.60
2018-06-22T13:11:48.814Z,22.40
2018-06-22T13:14:19.257Z,22.30
2018-06-22T13:16:48.654Z,21.30
2018-06-22T13:19:18.381Z,20.90
2018-06-22T13:21:58.454Z,21.20
2018-06-22T13:24:27.818Z,22.00
2018-06-22T13:26:57.285Z,22.30
2018-06-22T13:29:26.702Z,22.30
2018-06-22T13:32:51.897Z,22.00
2018-06-22T13:35:21.446Z,21.90
2018-06-22T13:37:50.858Z,19.90
2018-06-22T13:40:28.370Z,18.70
2018-06-22T13:42:57.804Z,18.10
2018-06-22T13:45:27.253Z,18.40
2018-06-22T13:47:56.714Z,20.30
2018-06-22T13:50:27.138Z,21.20
2018-06-22T13:52:56.571Z,22.10
2018-06-22T13:55:25.942Z,22.10
2018-06-22T13:57:55.342Z,22.80
2018-06-22T14:00:32.999Z,24.30
2018-06-22T14:03:02.326Z,24.00
2018-06-22T14:05:36.914Z,22.40
2018-06-22T14:08:06.326Z,23.10
2018-06-22T14:10:37.947Z,23.80
2018-06-22T14:13:07.295Z,22.60
2018-06-22T14:15:36.758Z,21.90
2018-06-22T14:18:06.108Z,19.90
2018-06-22T14:20:36.654Z,20.00
2018-06-22T14:23:06.038Z,21.00
2018-06-22T14:25:35.410Z,22.20
2018-06-22T14:28:04.799Z,22.60
2018-06-22T14:30:44.072Z,21.30
2018-06-22T14:33:13.446Z,22.10
2018-06-22T14:35:42.893Z,22.50
2018-06-22T14:38:12.234Z,22.70
2018-06-22T14:43:10.837Z,23.50
2018-06-22T14:45:40.239Z,23.50
2018-06-22T14:48:09.549Z,21.90
2018-06-22T14:50:51.635Z,21.40
2018-06-22T14:53:26.146Z,21.10
2018-06-22T14:56:00.718Z,22.20
2018-06-22T14:58:35.554Z,21.90
2018-06-22T15:01:28.841Z,21.50
2018-06-22T15:04:03.537Z,22.20
2018-06-22T15:06:38.229Z,22.60
2018-06-22T15:09:10.193Z,23.10
2018-06-22T15:11:52.573Z,22.40
2018-06-22T15:14:21.938Z,21.90
2018-06-22T15:16:51.316Z,20.20
2018-06-22T15:19:20.685Z,19.50
2018-06-22T15:22:02.932Z,19.00
2018-06-22T15:24:32.328Z,19.10
2018-06-22T15:27:01.742Z,18.50
2018-06-22T15:29:31.077Z,18.60
2018-06-22T15:32:00.722Z,18.10
2018-06-22T15:34:35.482Z,18.70
2018-06-22T15:37:10.111Z,18.80
2018-06-22T15:39:44.932Z,19.30
2018-06-22T15:42:19.846Z,20.40
2018-06-22T15:44:54.447Z,20.90
2018-06-22T15:47:29.009Z,19.50
2018-06-22T15:50:12.297Z,19.30
2018-06-22T15:52:46.785Z,18.70
2018-06-22T15:55:19.094Z,18.00
2018-06-22T15:57:48.461Z,17.70
2018-06-22T16:00:25.846Z,17.90
2018-06-22T16:03:00.615Z,17.70
2018-06-22T16:05:30.023Z,17.40
2018-06-22T16:10:30.961Z,16.70
2018-06-22T16:13:00.331Z,16.80
2018-06-22T16:15:34.762Z,16.90
2018-06-22T16:18:09.398Z,17.20
2018-06-22T16:20:44.261Z,17.40
2018-06-22T16:23:18.892Z,17.20
2018-06-22T16:25:53.369Z,16.80
2018-06-22T16:28:22.809Z,16.70
2018-06-22T16:30:53.315Z,16.90
2018-06-22T16:33:22.682Z,16.80
2018-06-22T16:35:52.053Z,16.50
2018-06-22T16:38:21.407Z,16.60
2018-06-22T16:40:51.860Z,16.70
2018-06-22T16:43:21.329Z,16.60
2018-06-22T16:45:50.734Z,16.40
2018-06-22T16:48:20.170Z,16.60
2018-06-22T16:51:13.091Z,16.50
2018-06-22T16:53:42.626Z,17.20
2018-06-22T16:58:41.763Z,17.20
2018-06-22T17:01:26.082Z,17.20
2018-06-22T17:03:55.506Z,16.90
2018-06-22T17:06:25.240Z,16.80
2018-06-22T17:08:59.882Z,16.70
2018-06-22T17:11:51.349Z,16.70
2018-06-22T17:14:25.933Z,16.80
2018-06-22T17:17:00.705Z,16.30
2018-06-22T17:19:30.172Z,16.40
2018-06-22T17:21:59.603Z,16.50
2018-06-22T17:24:29.006Z,16.50
2018-06-22T17:26:58.424Z,15.90
2018-06-22T17:29:27.903Z,16.00
2018-06-22T17:31:58.234Z,15.80
2018-06-22T17:34:27.650Z,15.80
2018-06-22T17:36:57.049Z,15.70
2018-06-22T17:39:26.513Z,15.60
2018-06-22T17:42:11.174Z,16.00
2018-06-22T17:44:40.600Z,15.90
2018-06-22T17:47:10.011Z,15.60
2018-06-22T17:49:39.429Z,15.50
2018-06-22T17:52:08.816Z,15.50
2018-06-22T17:54:38.241Z,15.50
2018-06-22T17:57:07.681Z,15.50
2018-06-22T17:59:42.141Z,15.50
2018-06-22T18:02:16.766Z,15.50
2018-06-22T18:04:50.208Z,15.50
2018-06-22T18:07:25.167Z,15.40
2018-06-22T18:10:01.946Z,15.70
2018-06-22T18:12:36.675Z,15.80
2018-06-22T18:15:06.417Z,15.80
2018-06-22T18:17:35.838Z,15.60
2018-06-22T18:20:08.681Z,15.50
2018-06-22T18:22:38.201Z,15.50
2018-06-22T18:25:07.606Z,15.40
2018-06-22T18:27:38.603Z,15.30
2018-06-22T18:30:36.064Z,15.30
2018-06-22T18:33:05.421Z,15.20
2018-06-22T18:35:34.806Z,15.30
2018-06-22T18:38:04.271Z,15.30
2018-06-22T18:40:38.838Z,15.30
2018-06-22T18:43:12.312Z,15.20
2018-06-22T18:45:41.730Z,15.30
2018-06-22T18:48:11.095Z,15.30
2018-06-22T18:50:48.710Z,15.20
2018-06-22T18:53:23.778Z,15.20
2018-06-22T18:55:58.415Z,14.90
2018-06-22T18:58:32.813Z,14.70
2018-06-22T19:01:14.750Z,14.80
2018-06-22T19:03:48.145Z,14.70
2018-06-22T19:06:17.821Z,14.60
2018-06-22T19:08:47.325Z,14.50
2018-06-22T19:11:39.697Z,14.50
2018-06-22T19:14:09.603Z,14.30
2018-06-22T19:16:40.421Z,14.30
2018-06-22T19:21:44.251Z,14.00
2018-06-22T19:24:13.659Z,13.90
2018-06-22T19:26:57.371Z,13.90
2018-06-22T19:29:26.773Z,13.80
2018-06-22T19:33:00.194Z,13.50
2018-06-22T19:35:29.582Z,13.30
2018-06-22T19:37:58.996Z,13.30
2018-06-22T19:41:10.149Z,13.30
2018-06-22T19:43:44.486Z,13.20
2018-06-22T19:46:19.028Z,13.20
2018-06-22T19:48:53.621Z,13.20
2018-06-22T19:51:28.553Z,13.20
2018-06-22T19:54:00.746Z,13.00
2018-06-22T19:56:30.165Z,13.00
2018-06-22T19:58:59.541Z,13.00
2018-06-22T20:01:43.482Z,12.90
2018-06-22T20:04:12.582Z,12.90
2018-06-22T20:06:41.675Z,13.10
2018-06-22T20:09:11.482Z,13.00
2018-06-22T20:11:41.937Z,13.10
2018-06-22T20:14:11.315Z,13.10
2018-06-22T20:16:40.669Z,13.00
2018-06-22T20:19:10.289Z,13.00
2018-06-22T20:21:43.806Z,13.10
2018-06-22T20:24:13.230Z,12.90
2018-06-22T20:26:42.619Z,12.90
2018-06-22T20:29:12.062Z,12.80
2018-06-22T20:32:15.329Z,12.80
2018-06-22T20:35:49.828Z,12.70
2018-06-22T20:38:24.129Z,12.70
2018-06-22T20:40:59.587Z,12.60
2018-06-22T20:44:32.701Z,12.60
2018-06-22T20:47:07.623Z,12.50
2018-06-22T20:49:44.300Z,12.40
2018-06-22T20:52:13.658Z,12.20
2018-06-22T20:54:43.073Z,12.20
2018-06-22T20:57:12.418Z,12.20
2018-06-22T20:59:55.742Z,12.10
2018-06-22T21:02:25.121Z,11.80
2018-06-22T21:04:54.580Z,11.80
2018-06-22T21:07:23.954Z,11.90
2018-06-22T21:10:32.069Z,11.80
2018-06-22T21:13:01.807Z,11.80
2018-06-22T21:15:30.884Z,11.90
2018-06-22T21:18:00.419Z,11.90
2018-06-22T21:21:35.242Z,12.00
2018-06-22T21:24:04.663Z,12.10
2018-06-22T21:26:34.050Z,12.00
2018-06-22T21:29:08.540Z,12.00
2018-06-22T21:32:00.459Z,11.90
2018-06-22T21:34:33.422Z,11.70
2018-06-22T21:37:07.928Z,11.70
2018-06-22T21:39:37.253Z,11.80
2018-06-22T21:42:06.718Z,11.80
2018-06-22T21:44:36.109Z,11.90
2018-06-22T21:47:05.545Z,11.90
2018-06-22T21:49:34.834Z,11.80
2018-06-22T21:52:04.286Z,11.80
2018-06-22T21:54:33.706Z,11.60
2018-06-22T21:57:03.194Z,11.50
2018-06-22T21:59:32.590Z,11.50
2018-06-22T22:02:02.002Z,11.50
2018-06-22T22:04:31.469Z,11.60
2018-06-22T22:07:01.042Z,11.50
2018-06-22T22:09:34.521Z,11.40
2018-06-22T22:12:03.915Z,11.40
2018-06-22T22:14:33.237Z,11.40
2018-06-22T22:19:31.773Z,10.90
2018-06-22T22:22:01.143Z,10.90
2018-06-22T22:24:30.521Z,11.00
2018-06-22T22:26:59.921Z,11.00
2018-06-22T22:29:29.338Z,11.10
2018-06-22T22:31:58.751Z,10.60
2018-06-22T22:34:28.143Z,10.60
2018-06-22T22:36:57.481Z,10.40
2018-06-22T22:39:26.857Z,10.40
2018-06-22T22:41:57.301Z,10.30
2018-06-22T22:44:26.729Z,10.30
2018-06-22T22:46:56.110Z,10.20
2018-06-22T22:49:25.420Z,10.20
2018-06-22T22:51:59.813Z,10.20
2018-06-22T22:54:29.169Z,10.30
2018-06-22T22:59:27.622Z,10.40
2018-06-22T23:02:19.062Z,10.30
2018-06-22T23:04:48.426Z,10.30
2018-06-22T23:07:17.893Z,10.10
2018-06-22T23:09:56.376Z,10.00
2018-06-22T23:12:25.797Z,9.90
2018-06-22T23:14:55.162Z,9.80
2018-06-22T23:17:24.574Z,9.80
2018-06-22T23:20:12.442Z,9.70
2018-06-22T23:22:58.963Z,9.70
2018-06-22T23:25:28.305Z,9.80
2018-06-22T23:27:57.637Z,9.90
2018-06-22T23:30:38.837Z,9.90
2018-06-22T23:33:08.226Z,9.80
2018-06-22T23:35:37.615Z,9.80
2018-06-22T23:38:07.210Z,9.90
2018-06-22T23:40:54.858Z,9.80
2018-06-22T23:43:24.253Z,9.80
2018-06-22T23:45:53.667Z,9.70
2018-06-22T23:48:23.097Z,9.60
2018-06-22T23:51:02.321Z,9.50
2018-06-22T23:53:31.685Z,9.30
2018-06-22T23:56:01.049Z,9.40
2018-06-22T23:58:30.410Z,9.40
